sensor_id;sensor_type;location;lat;lon;timestamp;pressure;altitude;pressure_sealevel;temperature
75273;BMP280;63869;52.344;16.928;2023-07-13T00:00:23;100362.25;;;18.80
75273;BMP280;63869;52.344;16.928;2023-07-13T00:02:49;100366.19;;;18.79
75273;BMP280;63869;52.344;16.928;2023-07-13T00:05:14;100360.22;;;18.75
75273;BMP280;63869;52.344;16.928;2023-07-13T00:07:39;100364.31;;;18.71
75273;BMP280;63869;52.344;16.928;2023-07-13T00:10:04;100364.53;;;18.67
75273;BMP280;63869;52.344;16.928;2023-07-13T00:12:31;100372.56;;;18.62
75273;BMP280;63869;52.344;16.928;2023-07-13T00:14:58;100380.34;;;18.54
75273;BMP280;63869;52.344;16.928;2023-07-13T00:17:24;100383.50;;;18.52
75273;BMP280;63869;52.344;16.928;2023-07-13T00:19:50;100387.34;;;18.46
75273;BMP280;63869;52.344;16.928;2023-07-13T00:22:15;100396.50;;;18.34
75273;BMP280;63869;52.344;16.928;2023-07-13T00:24:40;100411.00;;;18.31
75273;BMP280;63869;52.344;16.928;2023-07-13T00:27:07;100418.38;;;18.30
75273;BMP280;63869;52.344;16.928;2023-07-13T00:29:32;100413.41;;;18.29
75273;BMP280;63869;52.344;16.928;2023-07-13T00:31:58;100395.97;;;18.30
75273;BMP280;63869;52.344;16.928;2023-07-13T00:34:24;100390.06;;;18.31
75273;BMP280;63869;52.344;16.928;2023-07-13T00:36:49;100386.97;;;18.24
75273;BMP280;63869;52.344;16.928;2023-07-13T00:39:14;100383.81;;;18.25
75273;BMP280;63869;52.344;16.928;2023-07-13T00:41:39;100386.97;;;18.24
75273;BMP280;63869;52.344;16.928;2023-07-13T00:44:04;100379.78;;;18.21
75273;BMP280;63869;52.344;16.928;2023-07-13T00:46:31;100376.34;;;18.20
75273;BMP280;63869;52.344;16.928;2023-07-13T00:48:57;100376.34;;;18.20
75273;BMP280;63869;52.344;16.928;2023-07-13T00:51:25;100374.38;;;18.21
75273;BMP280;63869;52.344;16.928;2023-07-13T00:53:52;100373.16;;;18.22
75273;BMP280;63869;52.344;16.928;2023-07-13T00:56:18;100381.84;;;18.26
75273;BMP280;63869;52.344;16.928;2023-07-13T00:58:43;100382.88;;;18.28
75273;BMP280;63869;52.344;16.928;2023-07-13T01:01:08;100375.22;;;18.27
75273;BMP280;63869;52.344;16.928;2023-07-13T01:03:34;100375.22;;;18.27
75273;BMP280;63869;52.344;16.928;2023-07-13T01:05:59;100374.31;;;18.30
75273;BMP280;63869;52.344;16.928;2023-07-13T01:08:25;100379.50;;;18.33
75273;BMP280;63869;52.344;16.928;2023-07-13T01:10:51;100383.97;;;18.36
75273;BMP280;63869;52.344;16.928;2023-07-13T01:13:16;100386.97;;;18.38
75273;BMP280;63869;52.344;16.928;2023-07-13T01:15:43;100395.97;;;18.44
75273;BMP280;63869;52.344;16.928;2023-07-13T01:18:27;100397.25;;;18.49
75273;BMP280;63869;52.344;16.928;2023-07-13T01:21:03;100389.19;;;18.54
75273;BMP280;63869;52.344;16.928;2023-07-13T01:23:28;100388.06;;;18.61
75273;BMP280;63869;52.344;16.928;2023-07-13T01:25:54;100388.16;;;18.67
75273;BMP280;63869;52.344;16.928;2023-07-13T01:28:20;100392.38;;;18.68
75273;BMP280;63869;52.344;16.928;2023-07-13T01:30:46;100390.59;;;18.65
75273;BMP280;63869;52.344;16.928;2023-07-13T01:33:15;100391.34;;;18.65
75273;BMP280;63869;52.344;16.928;2023-07-13T01:35:41;100387.94;;;18.70
75273;BMP280;63869;52.344;16.928;2023-07-13T01:38:07;100391.78;;;18.78
75273;BMP280;63869;52.344;16.928;2023-07-13T01:40:33;100391.59;;;18.82
75273;BMP280;63869;52.344;16.928;2023-07-13T01:42:58;100380.53;;;18.85
75273;BMP280;63869;52.344;16.928;2023-07-13T01:45:24;100379.59;;;18.88
75273;BMP280;63869;52.344;16.928;2023-07-13T01:47:49;100371.78;;;18.90
75273;BMP280;63869;52.344;16.928;2023-07-13T01:50:14;100371.81;;;18.96
75273;BMP280;63869;52.344;16.928;2023-07-13T01:52:40;100372.09;;;18.98
75273;BMP280;63869;52.344;16.928;2023-07-13T01:55:05;100374.59;;;19.02
75273;BMP280;63869;52.344;16.928;2023-07-13T01:57:30;100367.03;;;19.06
75273;BMP280;63869;52.344;16.928;2023-07-13T01:59:55;100374.13;;;19.03
75273;BMP280;63869;52.344;16.928;2023-07-13T02:02:21;100370.94;;;19.05
75273;BMP280;63869;52.344;16.928;2023-07-13T02:04:46;100369.28;;;19.07
75273;BMP280;63869;52.344;16.928;2023-07-13T02:07:11;100365.34;;;19.08
75273;BMP280;63869;52.344;16.928;2023-07-13T02:09:36;100363.63;;;19.11
75273;BMP280;63869;52.344;16.928;2023-07-13T02:12:02;100364.38;;;19.11
75273;BMP280;63869;52.344;16.928;2023-07-13T02:14:27;100372.53;;;19.11
75273;BMP280;63869;52.344;16.928;2023-07-13T02:16:52;100372.97;;;19.10
75273;BMP280;63869;52.344;16.928;2023-07-13T02:19:17;100370.56;;;19.12
75273;BMP280;63869;52.344;16.928;2023-07-13T02:21:42;100375.97;;;19.12
75273;BMP280;63869;52.344;16.928;2023-07-13T02:24:08;100381.88;;;19.10
75273;BMP280;63869;52.344;16.928;2023-07-13T02:26:33;100385.59;;;19.13
75273;BMP280;63869;52.344;16.928;2023-07-13T02:28:59;100376.25;;;19.14
75273;BMP280;63869;52.344;16.928;2023-07-13T02:31:24;100379.22;;;19.16
75273;BMP280;63869;52.344;16.928;2023-07-13T02:33:49;100382.69;;;19.16
75273;BMP280;63869;52.344;16.928;2023-07-13T02:36:15;100371.63;;;19.20
75273;BMP280;63869;52.344;16.928;2023-07-13T02:38:41;100374.66;;;19.22
75273;BMP280;63869;52.344;16.928;2023-07-13T02:41:06;100388.97;;;19.28
75273;BMP280;63869;52.344;16.928;2023-07-13T02:43:32;100390.00;;;19.30
75273;BMP280;63869;52.344;16.928;2023-07-13T02:45:58;100396.44;;;19.33
75273;BMP280;63869;52.344;16.928;2023-07-13T02:48:28;100399.44;;;19.35
75273;BMP280;63869;52.344;16.928;2023-07-13T02:50:54;100393.34;;;19.40
75273;BMP280;63869;52.344;16.928;2023-07-13T02:53:19;100393.59;;;19.42
75273;BMP280;63869;52.344;16.928;2023-07-13T02:55:44;100397.34;;;19.45
75273;BMP280;63869;52.344;16.928;2023-07-13T02:58:12;100399.56;;;19.46
75273;BMP280;63869;52.344;16.928;2023-07-13T03:00:41;100396.84;;;19.46
75273;BMP280;63869;52.344;16.928;2023-07-13T03:03:07;100388.72;;;19.46
75273;BMP280;63869;52.344;16.928;2023-07-13T03:05:32;100390.19;;;19.47
75273;BMP280;63869;52.344;16.928;2023-07-13T03:07:57;100396.84;;;19.46
75273;BMP280;63869;52.344;16.928;2023-07-13T03:10:23;100404.44;;;19.42
75273;BMP280;63869;52.344;16.928;2023-07-13T03:12:48;100405.41;;;19.39
75273;BMP280;63869;52.344;16.928;2023-07-13T03:15:13;100384.66;;;19.36
75273;BMP280;63869;52.344;16.928;2023-07-13T03:17:38;100390.53;;;19.34
75273;BMP280;63869;52.344;16.928;2023-07-13T03:20:04;100388.06;;;19.31
75273;BMP280;63869;52.344;16.928;2023-07-13T03:22:29;100387.03;;;19.28
75273;BMP280;63869;52.344;16.928;2023-07-13T03:24:55;100392.94;;;19.27
75273;BMP280;63869;52.344;16.928;2023-07-13T03:27:20;100403.78;;;19.27
75273;BMP280;63869;52.344;16.928;2023-07-13T03:29:45;100413.38;;;19.28
75273;BMP280;63869;52.344;16.928;2023-07-13T03:32:10;100400.13;;;19.30
75273;BMP280;63869;52.344;16.928;2023-07-13T03:34:36;100400.66;;;19.34
75273;BMP280;63869;52.344;16.928;2023-07-13T03:37:01;100394.56;;;19.39
75273;BMP280;63869;52.344;16.928;2023-07-13T03:39:26;100388.47;;;19.44
75273;BMP280;63869;52.344;16.928;2023-07-13T03:41:51;100384.78;;;19.47
75273;BMP280;63869;52.344;16.928;2023-07-13T03:44:17;100385.63;;;19.53
75273;BMP280;63869;52.344;16.928;2023-07-13T03:46:43;100405.38;;;19.59
75273;BMP280;63869;52.344;16.928;2023-07-13T03:49:09;100407.63;;;19.61
75273;BMP280;63869;52.344;16.928;2023-07-13T03:51:34;100413.31;;;19.63
75273;BMP280;63869;52.344;16.928;2023-07-13T03:54:00;100411.88;;;19.67
75273;BMP280;63869;52.344;16.928;2023-07-13T03:56:25;100414.13;;;19.69
75273;BMP280;63869;52.344;16.928;2023-07-13T03:58:50;100416.09;;;19.68
75273;BMP280;63869;52.344;16.928;2023-07-13T04:01:17;100416.09;;;19.68
75273;BMP280;63869;52.344;16.928;2023-07-13T04:03:43;100429.94;;;19.70
75273;BMP280;63869;52.344;16.928;2023-07-13T04:06:12;100428.44;;;19.69
75273;BMP280;63869;52.344;16.928;2023-07-13T04:08:40;100421.06;;;19.70
75273;BMP280;63869;52.344;16.928;2023-07-13T04:11:05;100427.47;;;19.72
75273;BMP280;63869;52.344;16.928;2023-07-13T04:13:30;100429.44;;;19.72
75273;BMP280;63869;52.344;16.928;2023-07-13T04:15:56;100414.44;;;19.76
75273;BMP280;63869;52.344;16.928;2023-07-13T04:18:21;100412.25;;;19.80
75273;BMP280;63869;52.344;16.928;2023-07-13T04:20:47;100423.94;;;19.87
75273;BMP280;63869;52.344;16.928;2023-07-13T04:23:12;100427.19;;;19.91
75273;BMP280;63869;52.344;16.928;2023-07-13T04:25:38;100431.16;;;19.95
75273;BMP280;63869;52.344;16.928;2023-07-13T04:28:03;100441.34;;;20.00
75273;BMP280;63869;52.344;16.928;2023-07-13T04:30:29;100442.88;;;20.07
75273;BMP280;63869;52.344;16.928;2023-07-13T04:32:54;100438.06;;;20.16
75273;BMP280;63869;52.344;16.928;2023-07-13T04:35:19;100438.34;;;20.24
75273;BMP280;63869;52.344;16.928;2023-07-13T04:37:46;100434.72;;;20.33
75273;BMP280;63869;52.344;16.928;2023-07-13T04:40:11;100433.06;;;20.41
75273;BMP280;63869;52.344;16.928;2023-07-13T04:42:37;100442.03;;;20.47
75273;BMP280;63869;52.344;16.928;2023-07-13T04:45:03;100442.59;;;20.56
75273;BMP280;63869;52.344;16.928;2023-07-13T04:47:30;100434.47;;;20.62
75273;BMP280;63869;52.344;16.928;2023-07-13T04:49:55;100437.97;;;20.68
75273;BMP280;63869;52.344;16.928;2023-07-13T04:52:21;100430.09;;;20.76
75273;BMP280;63869;52.344;16.928;2023-07-13T04:54:46;100441.53;;;20.85
75273;BMP280;63869;52.344;16.928;2023-07-13T04:57:12;100433.19;;;20.94
75273;BMP280;63869;52.344;16.928;2023-07-13T04:59:37;100435.97;;;21.06
75273;BMP280;63869;52.344;16.928;2023-07-13T05:02:02;100440.19;;;21.12
75273;BMP280;63869;52.344;16.928;2023-07-13T05:04:28;100440.75;;;21.22
75273;BMP280;63869;52.344;16.928;2023-07-13T05:06:53;100441.03;;;21.29
75273;BMP280;63869;52.344;16.928;2023-07-13T05:09:18;100453.91;;;21.34
75273;BMP280;63869;52.344;16.928;2023-07-13T05:11:43;100456.13;;;21.36
75273;BMP280;63869;52.344;16.928;2023-07-13T05:14:08;100457.63;;;21.37
75273;BMP280;63869;52.344;16.928;2023-07-13T05:16:35;100459.59;;;21.36
75273;BMP280;63869;52.344;16.928;2023-07-13T05:19:00;100462.31;;;21.36
75273;BMP280;63869;52.344;16.928;2023-07-13T05:21:25;100462.06;;;21.34
75273;BMP280;63869;52.344;16.928;2023-07-13T05:23:50;100439.25;;;21.21
75273;BMP280;63869;52.344;16.928;2023-07-13T05:26:15;100472.69;;;21.32
75273;BMP280;63869;52.344;16.928;2023-07-13T05:28:41;100473.41;;;21.27
75273;BMP280;63869;52.344;16.928;2023-07-13T05:31:07;100478.06;;;21.21
75273;BMP280;63869;52.344;16.928;2023-07-13T05:33:33;100477.81;;;21.19
75273;BMP280;63869;52.344;16.928;2023-07-13T05:35:58;100485.97;;;21.19
75273;BMP280;63869;52.344;16.928;2023-07-13T05:38:25;100484.97;;;21.17
75273;BMP280;63869;52.344;16.928;2023-07-13T05:40:50;100494.13;;;21.14
75273;BMP280;63869;52.344;16.928;2023-07-13T05:43:16;100494.59;;;21.12
75273;BMP280;63869;52.344;16.928;2023-07-13T05:45:41;100501.25;;;21.11
75273;BMP280;63869;52.344;16.928;2023-07-13T05:48:06;100504.94;;;21.08
75273;BMP280;63869;52.344;16.928;2023-07-13T05:50:32;100512.09;;;21.06
75273;BMP280;63869;52.344;16.928;2023-07-13T05:52:57;100504.94;;;21.02
75273;BMP280;63869;52.344;16.928;2023-07-13T05:55:22;100512.81;;;21.00
75273;BMP280;63869;52.344;16.928;2023-07-13T05:57:47;100510.56;;;20.99
75273;BMP280;63869;52.344;16.928;2023-07-13T06:00:13;100514.53;;;20.98
75273;BMP280;63869;52.344;16.928;2023-07-13T06:02:38;100512.31;;;20.96
75273;BMP280;63869;52.344;16.928;2023-07-13T06:05:03;100522.91;;;20.94
75273;BMP280;63869;52.344;16.928;2023-07-13T06:07:29;100516.25;;;20.95
75273;BMP280;63869;52.344;16.928;2023-07-13T06:09:54;100521.22;;;20.97
75273;BMP280;63869;52.344;16.928;2023-07-13T06:12:19;100534.81;;;20.97
75273;BMP280;63869;52.344;16.928;2023-07-13T06:14:44;100543.94;;;20.99
75273;BMP280;63869;52.344;16.928;2023-07-13T06:17:09;100547.41;;;21.00
75273;BMP280;63869;52.344;16.928;2023-07-13T06:19:35;100543.94;;;20.99
75273;BMP280;63869;52.344;16.928;2023-07-13T06:22:00;100554.06;;;20.99
75273;BMP280;63869;52.344;16.928;2023-07-13T06:24:25;100554.06;;;20.99
75273;BMP280;63869;52.344;16.928;2023-07-13T06:26:51;100559.03;;;21.00
75273;BMP280;63869;52.344;16.928;2023-07-13T06:29:16;100565.00;;;21.04
75273;BMP280;63869;52.344;16.928;2023-07-13T06:31:41;100559.31;;;21.08
75273;BMP280;63869;52.344;16.928;2023-07-13T06:34:07;100559.88;;;21.12
75273;BMP280;63869;52.344;16.928;2023-07-13T06:36:32;100565.81;;;21.16
75273;BMP280;63869;52.344;16.928;2023-07-13T06:38:57;100569.06;;;21.20
75273;BMP280;63869;52.344;16.928;2023-07-13T06:41:22;100574.75;;;21.22
75273;BMP280;63869;52.344;16.928;2023-07-13T06:43:51;100575.56;;;21.28
75273;BMP280;63869;52.344;16.928;2023-07-13T06:46:16;100585.47;;;21.37
75273;BMP280;63869;52.344;16.928;2023-07-13T06:48:41;100565.75;;;21.48
75273;BMP280;63869;52.344;16.928;2023-07-13T06:51:06;100564.59;;;21.60
75273;BMP280;63869;52.344;16.928;2023-07-13T06:53:32;100564.38;;;21.69
75273;BMP280;63869;52.344;16.928;2023-07-13T06:55:57;100564.66;;;21.71
75273;BMP280;63869;52.344;16.928;2023-07-13T06:58:22;100562.22;;;21.78
75273;BMP280;63869;52.344;16.928;2023-07-13T07:00:49;100560.75;;;21.88
75273;BMP280;63869;52.344;16.928;2023-07-13T07:03:15;100564.50;;;22.02
75273;BMP280;63869;52.344;16.928;2023-07-13T07:05:40;100562.31;;;22.17
75273;BMP280;63869;52.344;16.928;2023-07-13T07:08:05;100571.00;;;22.33
75273;BMP280;63869;52.344;16.928;2023-07-13T07:10:31;100572.06;;;22.52
75273;BMP280;63869;52.344;16.928;2023-07-13T07:12:57;100573.03;;;22.71
75273;BMP280;63869;52.344;16.928;2023-07-13T07:15:22;100569.31;;;22.85
75273;BMP280;63869;52.344;16.928;2023-07-13T07:17:47;100567.31;;;22.97
75273;BMP280;63869;52.344;16.928;2023-07-13T07:20:13;100562.84;;;22.99
75273;BMP280;63869;52.344;16.928;2023-07-13T07:22:38;100568.56;;;23.01
75273;BMP280;63869;52.344;16.928;2023-07-13T07:25:03;100562.59;;;22.97
75273;BMP280;63869;52.344;16.928;2023-07-13T07:27:29;100552.69;;;23.05
75273;BMP280;63869;52.344;16.928;2023-07-13T07:29:54;100553.66;;;23.08
75273;BMP280;63869;52.344;16.928;2023-07-13T07:32:19;100554.88;;;23.12
75273;BMP280;63869;52.344;16.928;2023-07-13T07:34:45;100557.59;;;23.18
75273;BMP280;63869;52.344;16.928;2023-07-13T07:37:11;100555.84;;;23.26
75273;BMP280;63869;52.344;16.928;2023-07-13T07:39:36;100558.03;;;23.39
75273;BMP280;63869;52.344;16.928;2023-07-13T07:42:01;100560.97;;;23.52
75273;BMP280;63869;52.344;16.928;2023-07-13T07:44:26;100564.91;;;23.62
75273;BMP280;63869;52.344;16.928;2023-07-13T07:46:53;100564.84;;;23.73
75273;BMP280;63869;52.344;16.928;2023-07-13T07:49:19;100559.59;;;23.81
75273;BMP280;63869;52.344;16.928;2023-07-13T07:51:49;100564.03;;;23.84
75273;BMP280;63869;52.344;16.928;2023-07-13T07:54:15;100567.25;;;23.88
75273;BMP280;63869;52.344;16.928;2023-07-13T07:56:41;100569.19;;;23.98
75273;BMP280;63869;52.344;16.928;2023-07-13T07:59:06;100563.16;;;24.05
75273;BMP280;63869;52.344;16.928;2023-07-13T08:01:31;100572.84;;;24.06
75273;BMP280;63869;52.344;16.928;2023-07-13T08:03:56;100572.81;;;24.12
75273;BMP280;63869;52.344;16.928;2023-07-13T08:06:22;100569.03;;;24.21
75273;BMP280;63869;52.344;16.928;2023-07-13T08:08:48;100572.75;;;24.23
75273;BMP280;63869;52.344;16.928;2023-07-13T08:11:13;100566.09;;;24.19
75273;BMP280;63869;52.344;16.928;2023-07-13T08:13:38;100569.25;;;24.28
75273;BMP280;63869;52.344;16.928;2023-07-13T08:16:04;100567.16;;;24.40
75273;BMP280;63869;52.344;16.928;2023-07-13T08:18:29;100568.06;;;24.54
75273;BMP280;63869;52.344;16.928;2023-07-13T08:20:54;100573.13;;;24.68
75273;BMP280;63869;52.344;16.928;2023-07-13T08:23:24;100579.72;;;24.84
75273;BMP280;63869;52.344;16.928;2023-07-13T08:25:52;100576.81;;;25.01
75273;BMP280;63869;52.344;16.928;2023-07-13T08:28:19;100587.09;;;25.19
75273;BMP280;63869;52.344;16.928;2023-07-13T08:30:44;100584.06;;;25.41
75273;BMP280;63869;52.344;16.928;2023-07-13T08:33:09;100581.06;;;25.63
75273;BMP280;63869;52.344;16.928;2023-07-13T08:35:35;100581.81;;;25.82
75273;BMP280;63869;52.344;16.928;2023-07-13T08:38:01;100586.09;;;25.97
75273;BMP280;63869;52.344;16.928;2023-07-13T08:40:26;100584.84;;;26.11
75273;BMP280;63869;52.344;16.928;2023-07-13T08:42:56;100585.22;;;26.20
75273;BMP280;63869;52.344;16.928;2023-07-13T08:45:23;100584.69;;;26.22
75273;BMP280;63869;52.344;16.928;2023-07-13T08:47:52;100585.38;;;26.28
75273;BMP280;63869;52.344;16.928;2023-07-13T08:50:19;100584.38;;;26.25
75273;BMP280;63869;52.344;16.928;2023-07-13T08:52:45;100580.28;;;26.19
75273;BMP280;63869;52.344;16.928;2023-07-13T08:55:15;100578.03;;;26.17
75273;BMP280;63869;52.344;16.928;2023-07-13T08:57:41;100576.78;;;26.18
75273;BMP280;63869;52.344;16.928;2023-07-13T09:00:11;100583.22;;;26.21
75273;BMP280;63869;52.344;16.928;2023-07-13T09:10:12;100589.00;;;26.17
75273;BMP280;63869;52.344;16.928;2023-07-13T09:12:51;100582.09;;;26.11
75273;BMP280;63869;52.344;16.928;2023-07-13T09:17:49;100577.38;;;26.11
75273;BMP280;63869;52.344;16.928;2023-07-13T09:22:44;100578.13;;;26.44
75273;BMP280;63869;52.344;16.928;2023-07-13T09:27:39;100586.06;;;26.73
75273;BMP280;63869;52.344;16.928;2023-07-13T09:32:39;100575.00;;;26.92
75273;BMP280;63869;52.344;16.928;2023-07-13T09:35:11;100570.47;;;26.95
75273;BMP280;63869;52.344;16.928;2023-07-13T09:37:37;100572.56;;;26.89
75273;BMP280;63869;52.344;16.928;2023-07-13T09:40:03;100571.00;;;26.80
75273;BMP280;63869;52.344;16.928;2023-07-13T09:42:34;100575.72;;;26.66
75273;BMP280;63869;52.344;16.928;2023-07-13T09:45:00;100579.75;;;26.65
75273;BMP280;63869;52.344;16.928;2023-07-13T09:47:31;100576.56;;;26.61
75273;BMP280;63869;52.344;16.928;2023-07-13T09:50:00;100582.03;;;26.48
75273;BMP280;63869;52.344;16.928;2023-07-13T09:52:26;100572.94;;;26.53
75273;BMP280;63869;52.344;16.928;2023-07-13T09:54:52;100584.25;;;26.50
75273;BMP280;63869;52.344;16.928;2023-07-13T09:57:24;100581.09;;;26.46
75273;BMP280;63869;52.344;16.928;2023-07-13T09:59:51;100589.84;;;26.57
75273;BMP280;63869;52.344;16.928;2023-07-13T10:02:24;100589.31;;;26.72
75273;BMP280;63869;52.344;16.928;2023-07-13T10:04:55;100583.53;;;26.89
75273;BMP280;63869;52.344;16.928;2023-07-13T10:07:22;100581.03;;;26.91
75273;BMP280;63869;52.344;16.928;2023-07-13T10:09:47;100584.41;;;26.97
75273;BMP280;63869;52.344;16.928;2023-07-13T10:12:17;100579.53;;;26.90
75273;BMP280;63869;52.344;16.928;2023-07-13T10:14:42;100584.28;;;26.76
75273;BMP280;63869;52.344;16.928;2023-07-13T10:17:08;100587.56;;;26.61
75273;BMP280;63869;52.344;16.928;2023-07-13T10:19:35;100585.09;;;26.58
75273;BMP280;63869;52.344;16.928;2023-07-13T10:22:01;100586.25;;;26.62
75273;BMP280;63869;52.344;16.928;2023-07-13T10:24:31;100591.78;;;26.75
75273;BMP280;63869;52.344;16.928;2023-07-13T10:27:17;100581.44;;;26.95
75273;BMP280;63869;52.344;16.928;2023-07-13T10:32:34;100587.53;;;27.40
75273;BMP280;63869;52.344;16.928;2023-07-13T10:34:59;100580.72;;;27.54
75273;BMP280;63869;52.344;16.928;2023-07-13T10:37:26;100585.94;;;27.79
75273;BMP280;63869;52.344;16.928;2023-07-13T10:39:53;100585.53;;;27.95
75273;BMP280;63869;52.344;16.928;2023-07-13T10:42:27;100585.75;;;27.97
75273;BMP280;63869;52.344;16.928;2023-07-13T10:44:53;100594.69;;;27.77
75273;BMP280;63869;52.344;16.928;2023-07-13T10:47:19;100586.41;;;27.69
75273;BMP280;63869;52.344;16.928;2023-07-13T10:49:44;100588.91;;;27.67
75273;BMP280;63869;52.344;16.928;2023-07-13T10:54:55;100592.28;;;27.73
75273;BMP280;63869;52.344;16.928;2023-07-13T10:57:22;100586.41;;;27.69
75273;BMP280;63869;52.344;16.928;2023-07-13T10:59:48;100584.44;;;27.77
75273;BMP280;63869;52.344;16.928;2023-07-13T11:02:36;100581.50;;;27.96
75273;BMP280;63869;52.344;16.928;2023-07-13T11:05:13;100577.16;;;28.21
75273;BMP280;63869;52.344;16.928;2023-07-13T11:07:56;100580.78;;;28.37
75273;BMP280;63869;52.344;16.928;2023-07-13T11:10:48;100578.13;;;28.52
75273;BMP280;63869;52.344;16.928;2023-07-13T11:15:57;100584.00;;;28.85
75273;BMP280;63869;52.344;16.928;2023-07-13T11:18:23;100586.63;;;28.98
75273;BMP280;63869;52.344;16.928;2023-07-13T11:20:50;100581.44;;;28.87
75273;BMP280;63869;52.344;16.928;2023-07-13T11:25:41;100581.56;;;28.45
75273;BMP280;63869;52.344;16.928;2023-07-13T11:35:47;100570.78;;;28.27
75273;BMP280;63869;52.344;16.928;2023-07-13T11:38:27;100573.41;;;28.32
75273;BMP280;63869;52.344;16.928;2023-07-13T11:40:53;100568.56;;;28.25
75273;BMP280;63869;52.344;16.928;2023-07-13T11:43:19;100562.56;;;28.06
75273;BMP280;63869;52.344;16.928;2023-07-13T11:45:44;100571.00;;;27.87
75273;BMP280;63869;52.344;16.928;2023-07-13T11:48:19;100582.75;;;27.54
75273;BMP280;63869;52.344;16.928;2023-07-13T11:50:56;100570.41;;;27.21
75273;BMP280;63869;52.344;16.928;2023-07-13T11:53:22;100567.50;;;27.06
75273;BMP280;63869;52.344;16.928;2023-07-13T11:55:48;100571.00;;;27.06
75273;BMP280;63869;52.344;16.928;2023-07-13T11:58:14;100580.28;;;27.16
75273;BMP280;63869;52.344;16.928;2023-07-13T12:00:42;100573.69;;;27.33
75273;BMP280;63869;52.344;16.928;2023-07-13T12:03:07;100576.72;;;27.42
75273;BMP280;63869;52.344;16.928;2023-07-13T12:05:32;100588.00;;;27.52
75273;BMP280;63869;52.344;16.928;2023-07-13T12:07:58;100578.59;;;27.60
75273;BMP280;63869;52.344;16.928;2023-07-13T12:10:27;100580.22;;;27.76
75273;BMP280;63869;52.344;16.928;2023-07-13T12:13:00;100568.66;;;27.91
75273;BMP280;63869;52.344;16.928;2023-07-13T12:15:44;100568.19;;;28.21
75273;BMP280;63869;52.344;16.928;2023-07-13T12:18:13;100575.94;;;28.30
75273;BMP280;63869;52.344;16.928;2023-07-13T12:20:38;100583.78;;;28.47
75273;BMP280;63869;52.344;16.928;2023-07-13T12:23:14;100575.84;;;28.71
75273;BMP280;63869;52.344;16.928;2023-07-13T12:25:45;100572.44;;;28.86
75273;BMP280;63869;52.344;16.928;2023-07-13T12:28:30;100569.69;;;28.79
75273;BMP280;63869;52.344;16.928;2023-07-13T12:30:59;100564.16;;;28.79
75273;BMP280;63869;52.344;16.928;2023-07-13T12:33:27;100568.44;;;28.95
75273;BMP280;63869;52.344;16.928;2023-07-13T12:35:53;100570.19;;;29.13
75273;BMP280;63869;52.344;16.928;2023-07-13T12:38:18;100557.22;;;28.93
75273;BMP280;63869;52.344;16.928;2023-07-13T12:40:51;100562.34;;;28.89
75273;BMP280;63869;52.344;16.928;2023-07-13T12:43:16;100563.25;;;28.84
75273;BMP280;63869;52.344;16.928;2023-07-13T12:45:55;100552.84;;;28.61
75273;BMP280;63869;52.344;16.928;2023-07-13T12:48:21;100549.16;;;28.59
75273;BMP280;63869;52.344;16.928;2023-07-13T12:50:47;100560.94;;;28.31
75273;BMP280;63869;52.344;16.928;2023-07-13T12:53:14;100554.16;;;27.91
75273;BMP280;63869;52.344;16.928;2023-07-13T12:55:43;100554.28;;;27.51
75273;BMP280;63869;52.344;16.928;2023-07-13T12:58:10;100560.47;;;27.44
75273;BMP280;63869;52.344;16.928;2023-07-13T13:00:39;100554.38;;;27.25
75273;BMP280;63869;52.344;16.928;2023-07-13T13:03:05;100562.31;;;27.15
75273;BMP280;63869;52.344;16.928;2023-07-13T13:05:31;100559.00;;;27.43
75273;BMP280;63869;52.344;16.928;2023-07-13T13:07:57;100555.25;;;27.88
75273;BMP280;63869;52.344;16.928;2023-07-13T13:10:22;100549.53;;;28.06
75273;BMP280;63869;52.344;16.928;2023-07-13T13:12:48;100546.81;;;28.14
75273;BMP280;63869;52.344;16.928;2023-07-13T13:15:13;100551.28;;;28.17
75273;BMP280;63869;52.344;16.928;2023-07-13T13:17:38;100550.19;;;28.20
75273;BMP280;63869;52.344;16.928;2023-07-13T13:20:17;100556.38;;;28.13
75273;BMP280;63869;52.344;16.928;2023-07-13T13:22:42;100541.00;;;27.97
75273;BMP280;63869;52.344;16.928;2023-07-13T13:25:09;100549.25;;;27.97
75273;BMP280;63869;52.344;16.928;2023-07-13T13:27:35;100551.00;;;27.87
75273;BMP280;63869;52.344;16.928;2023-07-13T13:30:00;100541.34;;;27.93
75273;BMP280;63869;52.344;16.928;2023-07-13T13:32:25;100551.28;;;28.17
75273;BMP280;63869;52.344;16.928;2023-07-13T13:34:50;100537.28;;;28.64
75273;BMP280;63869;52.344;16.928;2023-07-13T13:37:22;100536.84;;;29.54
75273;BMP280;63869;52.344;16.928;2023-07-13T13:39:48;100544.22;;;30.20
75273;BMP280;63869;52.344;16.928;2023-07-13T13:42:14;100541.19;;;30.56
75273;BMP280;63869;52.344;16.928;2023-07-13T13:44:39;100544.00;;;30.88
75273;BMP280;63869;52.344;16.928;2023-07-13T13:47:07;100550.00;;;30.62
75273;BMP280;63869;52.344;16.928;2023-07-13T13:49:42;100554.31;;;30.33
75273;BMP280;63869;52.344;16.928;2023-07-13T13:52:08;100552.69;;;29.84
75273;BMP280;63869;52.344;16.928;2023-07-13T13:54:34;100554.50;;;29.44
75273;BMP280;63869;52.344;16.928;2023-07-13T13:56:59;100548.63;;;29.62
75273;BMP280;63869;52.344;16.928;2023-07-13T13:59:25;100549.38;;;30.16
75273;BMP280;63869;52.344;16.928;2023-07-13T14:01:51;100540.00;;;30.82
75273;BMP280;63869;52.344;16.928;2023-07-13T14:04:20;100547.19;;;31.17
75273;BMP280;63869;52.344;16.928;2023-07-13T14:06:46;100561.47;;;30.43
75273;BMP280;63869;52.344;16.928;2023-07-13T14:09:12;100556.00;;;30.13
75273;BMP280;63869;52.344;16.928;2023-07-13T14:11:38;100552.69;;;30.07
75273;BMP280;63869;52.344;16.928;2023-07-13T14:14:04;100551.28;;;30.68
75273;BMP280;63869;52.344;16.928;2023-07-13T14:16:30;100548.97;;;31.54